Time;durP1;ratioP1;P1;durP2;ratioP2;P2;SDS_P1;SDS_P2;PMS_P1;PMS_P2;Temp;Humidity;BMP_temperature;BMP_pressure;BME280_temperature;BME280_humidity;BME280_pressure;Samples;Min_cycle;Max_cycle;Signal;HPM_P1;HPM_P2
2022/06/04 00:00:59;;;;;;;34.22;31.00;;;;;;;17.63;100.00;101485.97;5009967;28;20049;-84
2022/06/04 00:03:27;;;;;;;33.58;30.63;;;;;;;18.04;100.00;101489.59;5005672;28;20064;-87
2022/06/04 00:05:56;;;;;;;33.95;31.00;;;;;;;17.89;100.00;101495.47;4999171;28;20061;-83
2022/06/04 00:08:24;;;;;;;33.55;30.67;;;;;;;17.54;100.00;101492.75;5007280;28;20068;-86
2022/06/04 00:16:26;;;;;;;33.65;31.05;;;;;;;18.16;100.00;101476.94;5012587;28;20049;-84
2022/06/04 00:18:53;;;;;;;32.40;29.67;;;;;;;18.12;100.00;101481.16;5010018;28;20041;-83
2022/06/04 00:21:20;;;;;;;33.30;30.30;;;;;;;17.82;100.00;101479.47;5013159;28;20054;-85
2022/06/04 00:23:47;;;;;;;32.47;29.85;;;;;;;17.80;100.00;101488.81;4998639;28;20134;-86
2022/06/04 00:26:14;;;;;;;35.05;32.00;;;;;;;17.78;100.00;101485.53;5008360;28;20050;-86
2022/06/04 00:28:46;;;;;;;35.20;32.05;;;;;;;17.67;100.00;101475.56;5004767;28;20054;-84
2022/06/04 00:31:13;;;;;;;35.20;32.22;;;;;;;17.46;100.00;101477.81;5009825;28;20124;-87
2022/06/04 00:33:40;;;;;;;35.28;32.28;;;;;;;17.10;100.00;101478.81;5007879;28;20050;-83
2022/06/04 00:36:07;;;;;;;34.50;31.52;;;;;;;17.09;100.00;101469.94;5007566;28;20053;-87
2022/06/04 00:38:34;;;;;;;38.33;35.03;;;;;;;16.66;100.00;101476.31;5016409;28;20045;-83
2022/06/04 00:41:14;;;;;;;37.40;33.97;;;;;;;17.30;100.00;101473.94;5003091;28;20053;-84
2022/06/04 00:44:37;;;;;;;35.40;32.25;;;;;;;16.98;100.00;101472.63;5008135;28;20065;-86
2022/06/04 00:47:13;;;;;;;33.35;30.48;;;;;;;17.44;100.00;101465.66;4910097;29;20055;-86
2022/06/04 00:49:40;;;;;;;35.30;32.33;;;;;;;17.51;100.00;101463.69;4997914;28;20050;-83
2022/06/04 00:52:11;;;;;;;33.00;30.10;;;;;;;17.54;100.00;101457.84;5005720;28;20050;-86
2022/06/04 00:54:39;;;;;;;34.97;31.85;;;;;;;17.25;100.00;101459.59;5000554;28;20058;-84
2022/06/04 00:57:43;;;;;;;34.30;31.38;;;;;;;16.96;100.00;101463.97;5015905;28;20053;-84
2022/06/04 01:00:15;;;;;;;33.08;30.27;;;;;;;16.51;100.00;101461.69;5006300;28;20057;-83
2022/06/04 01:03:03;;;;;;;33.63;30.58;;;;;;;17.00;100.00;101460.59;5011857;28;20165;-82
2022/06/04 01:05:37;;;;;;;34.63;31.42;;;;;;;16.40;100.00;101458.75;5007381;28;20057;-87
2022/06/04 01:08:43;;;;;;;33.63;30.60;;;;;;;16.66;100.00;101462.91;5008309;28;20049;-85
2022/06/04 01:11:23;;;;;;;35.10;31.98;;;;;;;16.79;100.00;101469.97;4987641;28;20073;-85
2022/06/04 01:14:03;;;;;;;34.00;30.90;;;;;;;17.05;100.00;101457.22;4996795;28;20061;-85
2022/06/04 01:16:37;;;;;;;33.05;30.00;;;;;;;16.78;100.00;101456.81;5011970;28;20077;-87
2022/06/04 01:19:24;;;;;;;34.17;31.20;;;;;;;16.85;100.00;101470.94;5000327;28;20050;-83
2022/06/04 01:22:05;;;;;;;39.60;36.20;;;;;;;16.83;100.00;101465.00;5001334;28;20411;-83
2022/06/04 01:24:45;;;;;;;34.05;31.15;;;;;;;16.57;100.00;101466.97;5011136;28;20427;-82
2022/06/04 01:27:17;;;;;;;34.63;31.63;;;;;;;16.07;100.00;101469.88;5005390;28;20054;-85
2022/06/04 01:29:55;;;;;;;33.53;30.70;;;;;;;16.81;100.00;101478.63;5007114;28;20082;-83
2022/06/04 01:32:29;;;;;;;34.63;31.25;;;;;;;16.88;100.00;101478.53;5014105;28;20046;-83
2022/06/04 01:35:08;;;;;;;36.92;34.03;;;;;;;16.79;100.00;101467.31;5003884;28;20057;-83
2022/06/04 01:37:39;;;;;;;35.70;32.80;;;;;;;16.80;100.00;101465.47;5014637;28;20057;-83
2022/06/04 01:42:58;;;;;;;33.50;30.60;;;;;;;16.19;100.00;101461.91;5005146;28;20169;-82
2022/06/04 01:45:27;;;;;;;36.83;33.28;;;;;;;16.56;100.00;101468.03;5003748;28;20494;-82
2022/06/04 01:47:58;;;;;;;34.17;30.90;;;;;;;16.62;100.00;101448.34;5003553;28;20049;-85
2022/06/04 01:50:29;;;;;;;34.10;30.95;;;;;;;16.59;100.00;101447.97;5008460;28;20467;-83
2022/06/04 01:52:58;;;;;;;32.92;29.77;;;;;;;16.68;100.00;101454.66;5010139;28;20053;-83
2022/06/04 01:55:31;;;;;;;36.70;33.10;;;;;;;16.26;100.00;101455.41;5007052;28;20046;-83
2022/06/04 01:58:03;;;;;;;36.05;32.90;;;;;;;16.21;100.00;101455.25;5013597;28;20050;-85
2022/06/04 02:00:34;;;;;;;33.15;30.25;;;;;;;16.17;100.00;101456.75;5123372;23;20050;-83
2022/06/04 02:03:06;;;;;;;32.65;29.85;;;;;;;16.06;100.00;101454.84;5032391;28;20555;-84
2022/06/04 02:05:38;;;;;;;33.30;30.33;;;;;;;16.02;100.00;101445.63;5033110;28;20057;-86
2022/06/04 02:08:08;;;;;;;30.60;27.90;;;;;;;16.14;100.00;101440.31;5035336;28;20050;-83
2022/06/04 02:10:38;;;;;;;30.50;27.60;;;;;;;16.08;100.00;101442.03;5035073;28;20045;-83
2022/06/04 02:13:10;;;;;;;31.90;28.95;;;;;;;16.14;100.00;101443.81;5021671;28;20120;-85
2022/06/04 02:15:42;;;;;;;32.50;29.65;;;;;;;16.33;100.00;101455.31;5029363;28;20063;-86
2022/06/04 02:18:11;;;;;;;34.35;31.45;;;;;;;16.31;100.00;101438.66;5035602;28;20045;-85
2022/06/04 02:20:38;;;;;;;32.90;30.00;;;;;;;16.03;100.00;101445.38;5034650;28;20045;-86
2022/06/04 02:23:06;;;;;;;31.02;28.42;;;;;;;16.39;100.00;101448.25;5032237;28;20049;-86
2022/06/04 02:25:33;;;;;;;33.20;30.08;;;;;;;16.11;100.00;101443.44;5032991;28;20049;-86
2022/06/04 02:28:00;;;;;;;31.20;28.45;;;;;;;16.10;100.00;101448.00;5030556;28;20068;-82
2022/06/04 02:30:37;;;;;;;31.48;28.67;;;;;;;16.31;100.00;101448.53;5037595;28;20056;-86
2022/06/04 02:33:12;;;;;;;33.72;30.20;;;;;;;15.78;100.00;101455.38;5038345;28;20045;-86
2022/06/04 02:35:45;;;;;;;34.33;31.20;;;;;;;16.30;100.00;101457.66;5038248;28;20049;-83
2022/06/04 02:38:21;;;;;;;35.95;32.40;;;;;;;16.17;100.00;101451.41;5031243;28;20042;-83
2022/06/04 02:41:03;;;;;;;37.25;33.75;;;;;;;16.15;100.00;101456.16;5039333;28;20393;-82
2022/06/04 02:43:41;;;;;;;35.03;31.83;;;;;;;15.93;100.00;101463.03;5027421;28;20059;-84
2022/06/04 02:46:18;;;;;;;35.47;32.20;;;;;;;15.90;100.00;101466.16;5037976;28;20060;-82
2022/06/04 02:48:51;;;;;;;35.30;32.08;;;;;;;16.25;100.00;101466.38;5036763;28;20056;-84
2022/06/04 02:51:22;;;;;;;33.10;29.92;;;;;;;15.59;100.00;101465.22;5038717;28;20132;-82
2022/06/04 02:53:51;;;;;;;34.00;31.15;;;;;;;16.08;100.00;101481.41;5020628;28;20042;-83
2022/06/04 02:56:31;;;;;;;35.40;32.10;;;;;;;16.49;100.00;101478.03;5038166;28;20053;-84
2022/06/04 02:59:03;;;;;;;33.42;30.38;;;;;;;16.50;100.00;101471.63;5027784;28;20050;-87
2022/06/04 03:01:36;;;;;;;32.67;29.95;;;;;;;16.59;100.00;101478.28;5037100;28;20080;-83
2022/06/04 03:04:05;;;;;;;32.35;29.25;;;;;;;16.10;100.00;101463.25;5038975;28;20049;-83
2022/06/04 03:06:33;;;;;;;31.67;28.88;;;;;;;16.06;100.00;101470.91;5038185;28;20041;-86
2022/06/04 03:09:03;;;;;;;31.88;28.95;;;;;;;16.44;100.00;101477.88;5038263;28;20115;-83
2022/06/04 03:11:30;;;;;;;31.42;28.65;;;;;;;16.33;100.00;101476.78;5033288;28;20462;-87
2022/06/04 03:13:57;;;;;;;34.13;31.40;;;;;;;16.52;100.00;101490.13;5037859;28;20054;-82
2022/06/04 03:16:36;;;;;;;32.90;30.13;;;;;;;16.20;100.00;101484.97;5031585;28;20136;-85
2022/06/04 03:19:03;;;;;;;32.83;30.13;;;;;;;16.10;100.00;101482.84;5031554;28;20462;-86
2022/06/04 03:21:30;;;;;;;32.35;29.25;;;;;;;16.24;100.00;101483.47;5029189;28;20045;-87
2022/06/04 03:23:57;;;;;;;31.05;28.55;;;;;;;16.36;100.00;101489.72;5036746;28;20060;-85
2022/06/04 03:26:25;;;;;;;31.10;28.42;;;;;;;16.55;100.00;101495.91;5034663;28;20052;-83
2022/06/04 03:28:51;;;;;;;32.78;29.80;;;;;;;16.53;100.00;101503.34;5036105;28;20056;-83
2022/06/04 03:31:18;;;;;;;32.15;29.55;;;;;;;16.14;100.00;101496.59;5038743;28;20072;-87
2022/06/04 03:33:47;;;;;;;30.95;28.38;;;;;;;16.50;100.00;101501.09;5037991;28;20122;-83
2022/06/04 03:36:14;;;;;;;31.13;28.52;;;;;;;16.87;100.00;101493.81;5036636;28;20385;-86
2022/06/04 03:38:41;;;;;;;30.85;28.17;;;;;;;17.03;100.00;101497.69;5036814;28;20045;-87
2022/06/04 03:41:07;;;;;;;30.92;28.00;;;;;;;17.16;100.00;101494.81;5036879;28;20049;-84
2022/06/04 03:43:34;;;;;;;31.65;29.02;;;;;;;17.35;100.00;101497.41;5037035;28;20456;-84
2022/06/04 03:46:01;;;;;;;32.08;29.52;;;;;;;17.04;100.00;101499.34;5036985;28;20056;-87
2022/06/04 03:48:28;;;;;;;31.02;28.40;;;;;;;17.14;100.00;101493.41;5037929;28;20053;-87
2022/06/04 03:50:56;;;;;;;31.45;28.40;;;;;;;17.12;100.00;101495.50;5036890;28;20049;-83
2022/06/04 03:53:23;;;;;;;31.38;28.77;;;;;;;17.01;100.00;101515.09;5037325;28;20499;-83
2022/06/04 03:55:50;;;;;;;32.35;29.45;;;;;;;17.39;100.00;101504.75;5036922;28;20053;-86
2022/06/04 03:58:17;;;;;;;31.38;28.65;;;;;;;17.68;100.00;101515.66;5037623;28;20054;-87
2022/06/04 04:00:45;;;;;;;33.33;30.63;;;;;;;17.72;100.00;101514.13;5037327;28;20052;-85
2022/06/04 04:03:14;;;;;;;33.17;30.38;;;;;;;18.13;100.00;101512.38;5036827;28;20049;-88
2022/06/04 04:05:46;;;;;;;32.00;29.25;;;;;;;18.30;100.00;101499.78;5037421;28;20045;-85
2022/06/04 04:08:15;;;;;;;33.28;30.45;;;;;;;18.34;100.00;101519.00;5036503;28;20053;-83
2022/06/04 04:10:44;;;;;;;33.42;30.63;;;;;;;18.40;100.00;101509.16;5038590;28;20512;-82
2022/06/04 04:13:12;;;;;;;34.05;31.42;;;;;;;18.41;100.00;101513.47;5037955;28;20049;-85
2022/06/04 04:15:40;;;;;;;31.52;29.17;;;;;;;18.36;100.00;101506.09;5036599;28;20072;-85
2022/06/04 04:18:08;;;;;;;31.67;29.02;;;;;;;18.46;100.00;101511.69;5036440;28;20413;-83
2022/06/04 04:20:38;;;;;;;32.35;29.65;;;;;;;18.73;100.00;101509.28;5033331;28;20053;-87
2022/06/04 04:23:06;;;;;;;32.50;30.10;;;;;;;18.60;100.00;101506.03;5033747;28;20045;-85
2022/06/04 04:25:40;;;;;;;32.38;29.67;;;;;;;18.86;100.00;101504.66;5038419;28;20060;-83
2022/06/04 04:28:09;;;;;;;32.55;30.05;;;;;;;18.92;100.00;101507.19;5030469;28;20050;-82
2022/06/04 04:30:37;;;;;;;33.83;31.00;;;;;;;18.92;100.00;101506.38;5035681;28;20056;-85
2022/06/04 04:33:06;;;;;;;33.42;30.75;;;;;;;18.85;100.00;101505.69;5040418;28;20064;-83
2022/06/04 04:35:34;;;;;;;35.05;31.75;;;;;;;19.17;100.00;101500.59;5036351;28;20052;-84
2022/06/04 04:38:01;;;;;;;36.45;33.50;;;;;;;19.07;100.00;101501.25;5038913;28;20053;-84
2022/06/04 04:40:31;;;;;;;32.88;30.13;;;;;;;19.38;100.00;101512.53;5038954;28;20056;-87
2022/06/04 04:43:00;;;;;;;35.72;32.90;;;;;;;19.53;100.00;101512.75;5039324;28;20051;-86
2022/06/04 04:45:28;;;;;;;31.92;29.65;;;;;;;19.81;100.00;101511.03;5039890;28;20115;-87
2022/06/04 04:47:56;;;;;;;32.05;29.75;;;;;;;19.54;100.00;101514.38;5041931;28;20064;-86
2022/06/04 04:50:25;;;;;;;30.80;28.35;;;;;;;19.84;100.00;101515.94;5040130;28;20474;-86
2022/06/04 04:52:53;;;;;;;29.92;27.40;;;;;;;20.11;100.00;101513.34;5039232;28;20049;-83
2022/06/04 04:55:20;;;;;;;29.40;27.20;;;;;;;20.29;100.00;101515.72;5036414;28;20053;-86
2022/06/04 04:57:47;;;;;;;29.42;27.00;;;;;;;20.44;100.00;101519.66;5036696;28;20060;-86
2022/06/04 05:00:19;;;;;;;29.38;27.08;;;;;;;20.68;100.00;101504.03;5037624;28;20388;-88
2022/06/04 05:02:46;;;;;;;28.38;26.20;;;;;;;20.84;100.00;101513.09;5035551;28;20144;-85
2022/06/04 05:05:14;;;;;;;29.38;26.85;;;;;;;21.05;100.00;101514.91;5036489;28;20041;-85
2022/06/04 05:07:42;;;;;;;31.15;28.30;;;;;;;21.10;100.00;101511.47;5037819;28;20060;-87
2022/06/04 05:10:10;;;;;;;27.25;25.05;;;;;;;21.14;100.00;101505.28;5037813;28;20065;-86
2022/06/04 05:12:43;;;;;;;28.58;26.27;;;;;;;21.09;100.00;101507.09;5033762;28;20125;-84
2022/06/04 05:15:11;;;;;;;29.10;27.00;;;;;;;21.13;100.00;101503.66;5029439;28;20551;-87
2022/06/04 05:17:39;;;;;;;28.80;26.35;;;;;;;21.51;100.00;101501.78;5035223;28;20414;-83
2022/06/04 05:20:07;;;;;;;26.83;24.85;;;;;;;23.84;100.00;101496.34;5033921;28;20041;-82
2022/06/04 05:22:33;;;;;;;27.38;25.48;;;;;;;24.36;100.00;101496.97;5034651;28;20049;-80
2022/06/04 05:25:01;;;;;;;28.42;26.08;;;;;;;24.68;100.00;101499.25;5033923;28;20497;-80
2022/06/04 05:27:28;;;;;;;27.35;25.38;;;;;;;24.47;100.00;101500.47;5033835;28;20056;-81
2022/06/04 05:29:55;;;;;;;28.80;26.48;;;;;;;22.77;100.00;101497.19;5035521;28;20053;-86
2022/06/04 05:32:21;;;;;;;30.02;27.48;;;;;;;22.24;100.00;101493.84;5036884;28;20111;-86
2022/06/04 05:34:50;;;;;;;29.27;27.00;;;;;;;22.44;100.00;101484.97;5037647;28;20405;-86
2022/06/04 05:37:17;;;;;;;28.35;26.27;;;;;;;22.33;100.00;101486.00;5038804;28;20081;-83
2022/06/04 05:39:43;;;;;;;28.90;26.75;;;;;;;22.55;100.00;101483.91;5040782;28;20379;-83
2022/06/04 05:42:11;;;;;;;28.23;26.02;;;;;;;22.70;100.00;101475.00;5035263;28;20056;-87
2022/06/04 05:44:38;;;;;;;27.63;25.73;;;;;;;22.95;100.00;101474.22;5031211;28;20064;-87
2022/06/04 05:47:07;;;;;;;26.38;24.45;;;;;;;23.17;100.00;101465.00;5028338;28;20049;-83
2022/06/04 05:49:35;;;;;;;27.00;24.92;;;;;;;23.01;100.00;101475.88;5032091;28;20053;-87
2022/06/04 05:52:03;;;;;;;26.80;24.90;;;;;;;23.04;100.00;101475.31;5035759;28;20050;-85
2022/06/04 05:54:30;;;;;;;27.00;25.17;;;;;;;22.94;100.00;101469.91;5036258;28;20042;-84
2022/06/04 05:56:57;;;;;;;28.58;26.45;;;;;;;23.23;100.00;101472.06;5033382;28;20042;-87
2022/06/04 05:59:24;;;;;;;27.05;25.35;;;;;;;23.07;100.00;101482.09;5033942;28;20049;-84
2022/06/04 06:01:52;;;;;;;27.50;25.08;;;;;;;23.18;100.00;101486.44;5033821;28;20060;-83
2022/06/04 06:04:21;;;;;;;26.08;24.35;;;;;;;23.27;100.00;101492.94;5035926;28;20064;-86
2022/06/04 06:06:50;;;;;;;27.40;25.45;;;;;;;23.12;100.00;101505.66;5037784;28;20129;-83
2022/06/04 06:09:22;;;;;;;27.38;25.20;;;;;;;23.12;100.00;101502.94;5028041;28;20389;-84
2022/06/04 06:11:50;;;;;;;27.10;25.17;;;;;;;23.27;100.00;101492.94;5024871;28;20053;-87
2022/06/04 06:14:18;;;;;;;26.00;24.10;;;;;;;23.67;100.00;101490.44;5031726;28;20052;-87
2022/06/04 06:16:47;;;;;;;27.40;25.08;;;;;;;24.03;100.00;101485.72;5025165;28;20050;-82
2022/06/04 06:19:16;;;;;;;26.70;24.85;;;;;;;24.19;100.00;101490.00;5027992;28;20049;-86
2022/06/04 06:21:43;;;;;;;27.63;25.65;;;;;;;24.30;100.00;101481.78;5028971;28;20046;-83
2022/06/04 06:24:12;;;;;;;28.10;26.20;;;;;;;24.34;100.00;101483.69;5025392;28;20060;-85
2022/06/04 06:26:44;;;;;;;26.17;24.35;;;;;;;24.39;100.00;101486.38;5034593;28;20049;-85
2022/06/04 06:29:12;;;;;;;26.77;24.67;;;;;;;24.58;100.00;101497.41;5032793;28;20506;-86
2022/06/04 06:31:39;;;;;;;28.00;26.02;;;;;;;24.81;100.00;101500.50;5032992;28;20126;-86
2022/06/04 06:34:05;;;;;;;26.58;24.70;;;;;;;24.56;100.00;101494.16;5029272;28;20045;-87
2022/06/04 06:36:43;;;;;;;48.22;44.47;;;;;;;24.78;100.00;101501.91;5026432;28;20458;-84
2022/06/04 06:39:16;;;;;;;49.58;46.03;;;;;;;25.15;100.00;101505.19;5025690;28;20049;-87
2022/06/04 06:42:18;;;;;;;54.78;49.25;;;;;;;25.22;100.00;101509.19;5031527;28;20050;-86
2022/06/04 06:44:44;;;;;;;53.65;48.78;;;;;;;25.45;100.00;101504.09;5027032;28;20053;-90
2022/06/04 06:47:12;;;;;;;55.15;49.42;;;;;;;25.76;100.00;101504.59;5035867;28;20049;-89
2022/06/04 06:49:38;;;;;;;52.20;48.03;;;;;;;25.90;100.00;101499.28;5036089;28;20130;-87
2022/06/04 06:52:06;;;;;;;53.20;49.05;;;;;;;25.72;100.00;101493.47;5034395;28;20068;-88
2022/06/04 06:54:35;;;;;;;51.35;47.55;;;;;;;25.67;100.00;101498.16;5034709;28;20049;-88
2022/06/04 06:57:04;;;;;;;53.63;49.03;;;;;;;26.23;100.00;101484.72;5014772;28;20050;-90
2022/06/04 06:59:33;;;;;;;54.17;49.45;;;;;;;26.13;100.00;101473.16;5029564;28;20478;-89
2022/06/04 07:02:03;;;;;;;53.67;48.58;;;;;;;26.36;100.00;101474.22;5036632;28;20053;-89
2022/06/04 07:04:30;;;;;;;54.75;49.38;;;;;;;26.26;100.00;101472.41;5036326;28;20147;-90
2022/06/04 07:06:59;;;;;;;53.97;49.03;;;;;;;26.46;100.00;101471.31;5037678;28;20053;-91
2022/06/04 07:09:30;;;;;;;56.35;50.95;;;;;;;26.46;100.00;101469.41;5037395;28;20080;-90
2022/06/04 07:11:57;;;;;;;55.70;50.70;;;;;;;26.57;100.00;101464.66;5033128;28;20370;-88
2022/06/04 07:14:25;;;;;;;55.33;49.63;;;;;;;26.21;100.00;101465.13;5038869;28;20052;-88
2022/06/04 07:16:54;;;;;;;56.80;51.28;;;;;;;25.98;100.00;101469.50;5039601;28;20054;-87
2022/06/04 07:19:23;;;;;;;55.67;50.28;;;;;;;26.29;100.00;101460.94;5039468;28;20064;-88
2022/06/04 07:21:51;;;;;;;56.08;50.50;;;;;;;26.57;100.00;101459.22;5038087;28;20049;-87
2022/06/04 07:24:19;;;;;;;55.50;50.08;;;;;;;26.80;100.00;101459.41;5037852;28;20497;-88
2022/06/04 07:26:46;;;;;;;55.63;50.13;;;;;;;26.58;100.00;101457.28;5038945;28;20111;-88
2022/06/04 07:29:13;;;;;;;55.63;50.20;;;;;;;26.82;100.00;101444.38;5036741;28;20107;-87
2022/06/04 07:31:40;;;;;;;54.95;49.47;;;;;;;26.53;100.00;101444.56;5040763;28;20046;-90
2022/06/04 07:34:09;;;;;;;55.65;50.17;;;;;;;26.91;100.00;101444.50;5038926;28;20045;-88
2022/06/04 07:36:38;;;;;;;56.13;50.58;;;;;;;26.89;100.00;101442.06;5038091;28;20045;-86
2022/06/04 07:39:07;;;;;;;58.33;52.25;;;;;;;26.99;100.00;101443.00;5037279;28;20462;-88
2022/06/04 07:41:38;;;;;;;55.58;50.63;;;;;;;27.66;100.00;101437.13;5039351;28;20049;-89
2022/06/04 07:44:06;;;;;;;58.50;52.78;;;;;;;27.57;100.00;101443.31;5037919;28;20374;-86
2022/06/04 07:46:35;;;;;;;61.05;55.15;;;;;;;27.28;100.00;101442.78;5032729;28;20053;-91
2022/06/04 07:49:05;;;;;;;66.90;60.83;;;;;;;27.42;100.00;101432.72;5038064;28;20053;-87
2022/06/04 07:51:35;;;;;;;56.33;50.20;;;;;;;27.36;100.00;101442.09;5038470;28;20045;-88
2022/06/04 07:54:02;;;;;;;56.28;50.03;;;;;;;27.32;100.00;101444.63;5038871;28;20136;-86
2022/06/04 07:56:29;;;;;;;57.20;51.35;;;;;;;27.88;100.00;101434.53;5033913;28;20053;-88
2022/06/04 07:58:56;;;;;;;54.72;48.83;;;;;;;27.70;100.00;101430.78;5037988;28;20405;-86
2022/06/04 08:01:24;;;;;;;55.78;49.97;;;;;;;27.70;100.00;101432.69;5037857;28;20119;-89
2022/06/04 08:03:53;;;;;;;55.40;49.45;;;;;;;27.58;100.00;101433.22;5036746;28;20064;-87
2022/06/04 08:06:21;;;;;;;53.60;48.40;;;;;;;27.90;100.00;101434.22;5038805;28;20045;-90
2022/06/04 08:08:54;;;;;;;54.83;49.53;;;;;;;27.74;100.00;101439.97;5036261;28;20073;-89
2022/06/04 08:11:34;;;;;;;54.38;48.90;;;;;;;28.20;100.00;101444.50;5036639;28;20045;-90
2022/06/04 08:14:09;;;;;;;55.17;49.58;;;;;;;28.05;100.00;101442.91;5031337;28;20045;-88
2022/06/04 08:16:38;;;;;;;54.50;49.40;;;;;;;27.86;100.00;101437.56;5022284;28;20049;-90
2022/06/04 08:19:06;;;;;;;53.75;48.58;;;;;;;28.02;100.00;101437.22;5036674;28;20061;-87
2022/06/04 08:21:34;;;;;;;27.35;25.20;;;;;;;28.05;100.00;101425.72;5036784;28;20064;-90
2022/06/04 08:24:02;;;;;;;28.05;25.95;;;;;;;28.02;100.00;101434.50;5035532;28;20049;-86
2022/06/04 08:26:30;;;;;;;27.52;25.52;;;;;;;28.24;100.00;101429.09;5032285;28;20048;-87
2022/06/04 08:28:57;;;;;;;27.20;25.45;;;;;;;28.31;100.00;101425.94;5035855;28;20049;-88
2022/06/04 08:31:24;;;;;;;25.80;24.05;;;;;;;28.67;100.00;101425.13;5037322;28;20053;-89
2022/06/04 08:33:51;;;;;;;27.70;25.67;;;;;;;28.85;100.00;101426.84;5037068;28;20064;-88
2022/06/04 08:36:19;;;;;;;26.38;24.52;;;;;;;28.89;100.00;101427.00;5037160;28;20060;-86
2022/06/04 08:38:46;;;;;;;26.67;24.98;;;;;;;28.25;100.00;101419.78;5019002;28;20180;-90
2022/06/04 08:41:27;;;;;;;27.02;25.05;;;;;;;29.02;100.00;101423.44;5034057;28;20049;-89
2022/06/04 08:44:03;;;;;;;26.92;25.20;;;;;;;29.37;100.00;101402.50;5035338;28;20060;-89
2022/06/04 08:46:36;;;;;;;26.48;24.67;;;;;;;29.79;100.00;101405.72;5038938;28;20049;-89
2022/06/04 08:49:11;;;;;;;27.00;25.02;;;;;;;29.14;100.00;101418.19;5036461;28;20049;-86
2022/06/04 08:51:38;;;;;;;28.10;25.98;;;;;;;29.70;96.07;101415.84;5037363;28;20111;-88
2022/06/04 08:59:45;;;;;;;26.60;24.80;;;;;;;29.72;97.71;101415.53;5036076;28;20150;-88
2022/06/04 09:02:19;;;;;;;26.27;24.48;;;;;;;29.46;96.45;101405.28;5035907;28;20053;-89
2022/06/04 09:04:56;;;;;;;25.73;23.98;;;;;;;29.73;98.90;101403.44;5035889;28;20045;-91
2022/06/04 09:07:27;;;;;;;26.02;24.25;;;;;;;29.98;96.19;101401.84;5037075;28;20058;-90
2022/06/04 09:09:58;;;;;;;26.50;24.48;;;;;;;30.08;90.36;101396.09;5035871;28;20061;-90
2022/06/04 09:12:36;;;;;;;26.25;24.23;;;;;;;30.45;83.88;101386.41;5036800;28;20053;-88
2022/06/04 09:15:06;;;;;;;25.88;24.17;;;;;;;30.65;82.08;101398.63;5037067;28;20119;-87
2022/06/04 09:17:40;;;;;;;25.35;23.60;;;;;;;30.28;79.81;101389.97;5037059;28;20100;-89
2022/06/04 09:20:18;;;;;;;25.50;23.60;;;;;;;30.17;86.39;101387.84;5027825;28;20045;-87
2022/06/04 09:22:48;;;;;;;27.48;25.33;;;;;;;30.15;86.92;101381.91;5028164;28;20053;-88
2022/06/04 09:25:17;;;;;;;26.60;24.65;;;;;;;30.47;86.97;101389.66;5036270;28;20088;-88
2022/06/04 09:28:00;;;;;;;25.80;24.10;;;;;;;30.72;83.80;101381.69;5036473;28;20049;-90
2022/06/04 09:30:35;;;;;;;25.65;23.75;;;;;;;30.77;94.14;101379.59;5034873;28;20456;-88
2022/06/04 09:33:19;;;;;;;25.63;23.88;;;;;;;30.52;77.48;101381.25;5035134;28;20049;-88
2022/06/04 09:35:49;;;;;;;25.52;23.70;;;;;;;30.49;84.52;101370.13;5029243;28;20049;-84
2022/06/04 09:38:26;;;;;;;26.88;24.77;;;;;;;30.46;81.94;101368.84;5034965;28;20497;-82
2022/06/04 09:41:00;;;;;;;25.80;24.00;;;;;;;31.29;89.43;101364.91;5037782;28;20469;-79
2022/06/04 09:43:30;;;;;;;24.95;23.25;;;;;;;31.46;81.45;101364.00;5032980;28;20061;-82
2022/06/04 09:46:00;;;;;;;25.90;24.10;;;;;;;31.68;79.23;101360.97;5033249;28;20046;-82
2022/06/04 09:48:31;;;;;;;25.75;23.88;;;;;;;31.70;80.05;101355.13;5030734;28;20050;-82
2022/06/04 09:51:02;;;;;;;26.23;24.50;;;;;;;31.64;75.73;101356.47;5033890;28;20057;-82
2022/06/04 09:53:32;;;;;;;26.23;24.33;;;;;;;31.17;73.86;101345.59;5038322;28;20414;-82
2022/06/04 09:56:08;;;;;;;26.38;24.58;;;;;;;31.52;73.95;101348.94;5036251;28;20423;-82
2022/06/04 09:58:38;;;;;;;26.92;25.02;;;;;;;31.21;75.16;101350.06;5028687;28;20112;-81
2022/06/04 10:01:08;;;;;;;27.05;25.33;;;;;;;30.87;73.61;101342.00;5021149;28;20038;-81
2022/06/04 10:03:37;;;;;;;25.95;24.25;;;;;;;31.00;73.99;101352.75;4669313;28;9999800;-83
2022/06/04 10:06:06;;;;;;;27.42;25.63;;;;;;;31.61;76.98;101343.41;5024545;28;20100;-81
2022/06/04 10:09:55;;;;;;;28.13;26.13;;;;;;;31.52;75.01;101351.69;5026635;28;20472;-82
2022/06/04 10:11:24;;;;;;;26.17;24.30;;;;;;;31.91;66.93;101339.50;5026188;28;20500;-83
2022/06/04 10:13:56;;;;;;;28.10;26.00;;;;;;;30.68;69.79;101337.69;5028274;28;20049;-82
2022/06/04 10:16:24;;;;;;;;;;;;;;;30.18;83.56;101330.03;5027401;28;20065;-81
2022/06/04 10:18:57;;;;;;;26.65;24.90;;;;;;;29.88;86.74;101331.81;5026705;28;19925;-82
2022/06/04 10:21:27;;;;;;;28.73;26.67;;;;;;;29.81;91.50;101320.53;5031029;28;20060;-80
2022/06/04 10:23:57;;;;;;;29.33;27.42;;;;;;;30.51;87.81;101319.34;5033858;28;20387;-81
2022/06/04 10:26:41;;;;;;;30.88;28.48;;;;;;;30.13;90.44;101319.22;5029991;28;20499;-81
2022/06/04 10:29:41;;;;;;;27.48;25.77;;;;;;;30.00;92.22;101322.94;5029722;28;20045;-81
2022/06/04 10:32:18;;;;;;;27.15;25.25;;;;;;;30.52;81.79;101314.66;5016963;28;20057;-82
2022/06/04 10:34:52;;;;;;;28.17;25.88;;;;;;;30.32;81.02;101311.50;5023496;28;20049;-82
2022/06/04 10:37:41;;;;;;;26.13;24.33;;;;;;;30.39;81.34;101316.47;5025702;28;20046;-82
2022/06/04 10:40:33;;;;;;;26.02;24.15;;;;;;;31.28;73.35;101308.41;5024660;28;20124;-82
2022/06/04 10:43:06;;;;;;;;;;;;;;;31.66;65.35;101311.06;5028539;28;20080;-82
2022/06/04 10:45:40;;;;;;;25.70;23.95;;;;;;;30.96;66.99;101309.88;5028327;28;19921;-82
2022/06/04 10:48:12;;;;;;;27.02;25.13;;;;;;;30.07;72.63;101304.88;5033389;28;20048;-82
2022/06/04 10:53:56;;;;;;;33.55;30.50;;;;;;;29.41;88.59;101288.59;5026171;28;20060;-82
2022/06/04 10:56:30;;;;;;;31.98;29.30;;;;;;;30.55;85.71;101284.66;5034164;28;20501;-83
2022/06/04 10:59:03;;;;;;;27.40;25.38;;;;;;;31.09;80.19;101284.16;5035919;28;20042;-82
2022/06/04 11:01:40;;;;;;;27.48;25.58;;;;;;;30.99;78.75;101276.31;5035591;28;20442;-83
2022/06/04 11:04:19;;;;;;;28.25;26.48;;;;;;;31.42;72.27;101267.03;5032876;28;20374;-83
2022/06/04 11:06:52;;;;;;;25.17;23.45;;;;;;;32.19;69.67;101272.19;5022078;28;20053;-83
2022/06/04 11:09:24;;;;;;;26.38;24.48;;;;;;;31.59;72.05;101255.91;5027666;28;20057;-82
2022/06/04 11:11:55;;;;;;;27.17;24.73;;;;;;;31.86;70.83;101265.53;5032270;28;20060;-83
2022/06/04 11:14:30;;;;;;;26.50;24.73;;;;;;;31.31;68.14;101269.31;5032863;28;20460;-83
2022/06/04 11:17:02;;;;;;;25.25;23.55;;;;;;;31.44;69.13;101254.56;5033042;28;20045;-82
2022/06/04 11:19:37;;;;;;;26.45;24.67;;;;;;;31.57;63.55;101255.44;5032494;28;20068;-82
2022/06/04 11:22:13;;;;;;;26.10;24.13;;;;;;;30.74;73.04;101265.09;5033569;28;20037;-83
2022/06/04 11:24:47;;;;;;;26.92;25.10;;;;;;;31.50;69.69;101249.69;5036415;28;20049;-82
2022/06/04 11:27:22;;;;;;;30.15;27.45;;;;;;;32.69;70.96;101249.97;5032325;28;20374;-82
2022/06/04 11:29:52;;;;;;;59.67;54.75;;;;;;;32.58;60.95;101246.06;5033818;28;20053;-82
2022/06/04 11:32:26;;;;;;;68.15;61.92;;;;;;;32.36;66.47;101247.25;5031997;28;20053;-81
2022/06/04 11:35:05;;;;;;;66.70;60.17;;;;;;;32.65;60.90;101250.97;5032019;28;20056;-81
2022/06/04 11:37:48;;;;;;;68.95;62.38;;;;;;;31.88;66.47;101245.97;5024155;28;20058;-82
2022/06/04 11:40:20;;;;;;;;;;;;;;;31.16;66.51;101245.22;5028706;28;20402;-82